Clark Rgnl Information

FAA: JVY - ICAO: KJVY

Clark Rgnl (Airport) Location

State Indiana
County Clark
City Jeffersonville
Clark Rgnl (Airport) is 5 miles north of Jeffersonville, IN.
Latitude 38-21-59.8260N
Longitude 085-44-17.3210W
Elevation 477ft

Clark Rgnl METARs

METAR KJVY 170335Z AUTO 00000KT 10SM CLR 13/12 A2995 RMK AO2
Altimeter 29.95"
Temperature 13.0°C (55.4°F)
Wind 0° at 0KT
Clouds Skies are clear.
Visibility 10.0mi
Time observed: 2022-05-17T03:35:00Z

Clark Rgnl (Airport) Details

Status Operational
Activation December 1981
Ownership Public
Usage Public
Chart ST LOUIS
ATC on-site No
Beacon schedule sunset-sunrise
Beacon color clear green

Clark Rgnl (Airport) Contacts

Owner SOUTH CENTRAL REGIONAL AIRPORT AUTH
Owner address 6003 PROPELLER LANE, SELLERSBURG, IN 47172
Owner phone 812-246-7460
Manager MARIO RODRIGUEZ
Manager address 7800 COL. H. WEIR COOK MEMORIAL DR., INDIANAPOLIS, IN 46241
Manager phone 317-487-9594

Clark Rgnl Radio Frequencies

Clark Rgnl (Airport) Radio Frequencies

UNICOM 122.7
Common traffic advisory frequency (CTAF) 122.7